Terminal Aerodrome Forecast
Issued by NWS

Home | Current Version | Previous Version | Text Only | Print | Product List | Glossary Off
Versions: 1 2 3 4 5 6 7 8 9 10 11 12 13 14 15 16 17 18 19 20 21 22 23 24 25 26

000
FTUS43 KGRB 201900 AAA
TAFMTW
TAF AMD
KMTW 201946Z 2020/2118 30007KT P6SM OVC035
     FM202300 13005KT P6SM SCT035
     FM210500 11003KT 5SM BR SCT040 SCT070
     FM211000 08003KT 2SM BR SCT040 BKN070
     FM211400 12006KT P6SM BKN050=

USA.gov is the U.S. government's official web portal to all federal, state and local government web resources and services.